createdAt,value
2019-04-19T00:02:00.539Z,8.90
2019-04-19T00:04:27.397Z,8.90
2019-04-19T00:07:09.077Z,8.70
2019-04-19T00:09:41.623Z,8.70
2019-04-19T00:12:17.196Z,8.70
2019-04-19T00:14:31.931Z,8.60
2019-04-19T00:17:01.875Z,8.50
2019-04-19T00:19:44.667Z,8.50
2019-04-19T00:22:24.026Z,8.50
2019-04-19T00:24:37.563Z,8.40
2019-04-19T00:27:07.650Z,8.50
2019-04-19T00:29:44.579Z,8.50
2019-04-19T00:32:20.808Z,8.50
2019-04-19T00:34:39.857Z,8.50
2019-04-19T00:37:09.891Z,8.50
2019-04-19T00:40:07.891Z,8.60
2019-04-19T00:42:48.009Z,8.80
2019-04-19T00:45:27.378Z,8.90
2019-04-19T00:47:56.379Z,8.70
2019-04-19T00:50:22.444Z,8.60
2019-04-19T00:52:56.955Z,8.50
2019-04-19T00:55:19.674Z,8.40
2019-04-19T00:57:49.839Z,8.40
2019-04-19T01:00:21.908Z,8.50
2019-04-19T01:02:52.168Z,8.50
2019-04-19T01:05:21.994Z,8.30
2019-04-19T01:07:51.581Z,8.30
2019-04-19T01:10:34.497Z,8.40
2019-04-19T01:13:05.691Z,8.50
2019-04-19T01:15:31.825Z,8.50
2019-04-19T01:18:11.766Z,8.50
2019-04-19T01:20:24.951Z,8.40
2019-04-19T01:22:58.538Z,8.30
2019-04-19T01:25:27.805Z,8.20
2019-04-19T01:27:57.631Z,8.10
2019-04-19T01:30:31.866Z,8.10
2019-04-19T01:33:01.753Z,8.00
2019-04-19T01:35:28.544Z,8.00
2019-04-19T01:38:02.343Z,8.00
2019-04-19T01:40:52.362Z,8.00
2019-04-19T01:43:23.734Z,8.00
2019-04-19T01:46:09.878Z,8.00
2019-04-19T01:48:53.568Z,8.20
2019-04-19T01:51:42.431Z,8.10
2019-04-19T01:54:32.153Z,8.10
2019-04-19T01:56:48.341Z,8.20
2019-04-19T01:59:41.739Z,8.30
2019-04-19T02:02:11.708Z,8.20
2019-04-19T02:04:38.356Z,8.10
2019-04-19T02:07:12.558Z,8.00
2019-04-19T02:09:54.248Z,8.00
2019-04-19T02:12:26.067Z,7.90
2019-04-19T02:14:51.613Z,7.90
2019-04-19T02:17:16.049Z,8.00
2019-04-19T02:19:52.041Z,8.00
2019-04-19T02:22:21.138Z,8.10
2019-04-19T02:24:49.184Z,8.10
2019-04-19T02:27:18.396Z,8.10
2019-04-19T02:29:52.856Z,7.90
2019-04-19T02:32:34.234Z,7.70
2019-04-19T02:35:29.388Z,7.70
2019-04-19T02:38:03.657Z,7.60
2019-04-19T02:40:52.620Z,7.60
2019-04-19T02:43:07.367Z,7.60
2019-04-19T02:45:46.150Z,7.70
2019-04-19T02:48:13.282Z,7.70
2019-04-19T02:55:50.174Z,7.70
2019-04-19T02:58:41.925Z,7.60
2019-04-19T03:01:30.725Z,7.60
2019-04-19T03:03:30.942Z,7.50
2019-04-19T03:06:06.134Z,7.50
2019-04-19T03:08:16.518Z,7.50
2019-04-19T03:10:59.616Z,7.40
2019-04-19T03:13:33.364Z,7.40
2019-04-19T03:16:03.994Z,7.50
2019-04-19T03:18:35.923Z,7.50
2019-04-19T03:21:02.250Z,7.50
2019-04-19T03:23:33.013Z,7.50
2019-04-19T03:26:04.642Z,7.40
2019-04-19T03:28:33.860Z,7.30
2019-04-19T03:31:27.697Z,7.20
2019-04-19T03:33:58.976Z,7.20
2019-04-19T03:36:20.327Z,7.20
2019-04-19T03:38:48.834Z,7.10
2019-04-19T03:41:43.226Z,7.10
2019-04-19T03:44:16.815Z,7.20
2019-04-19T03:46:53.043Z,7.20
2019-04-19T03:49:23.826Z,7.10
2019-04-19T03:51:57.537Z,7.10
2019-04-19T03:54:21.411Z,7.10
2019-04-19T03:56:49.203Z,6.90
2019-04-19T03:59:02.852Z,6.80
2019-04-19T04:01:37.760Z,6.90
2019-04-19T04:04:11.045Z,6.80
2019-04-19T04:06:38.991Z,6.90
2019-04-19T04:09:16.713Z,6.90
2019-04-19T04:12:00.515Z,7.00
2019-04-19T04:14:51.897Z,7.10
2019-04-19T04:17:07.844Z,7.10
2019-04-19T04:19:37.791Z,7.20
2019-04-19T04:22:15.091Z,7.30
2019-04-19T04:24:51.359Z,7.20
2019-04-19T04:27:28.003Z,7.20
2019-04-19T04:29:50.011Z,7.30
2019-04-19T04:32:19.631Z,7.30
2019-04-19T04:34:54.259Z,7.30
2019-04-19T04:37:31.148Z,7.30
2019-04-19T04:39:45.184Z,7.30
2019-04-19T04:42:22.270Z,7.40
2019-04-19T04:45:14.942Z,7.50
2019-04-19T04:48:01.500Z,7.50
2019-04-19T04:50:56.514Z,7.50
2019-04-19T04:53:11.068Z,7.50
2019-04-19T04:56:06.997Z,7.50
2019-04-19T04:58:40.103Z,7.60
2019-04-19T05:01:10.873Z,7.70
2019-04-19T05:03:54.050Z,7.90
2019-04-19T05:06:25.665Z,8.20
2019-04-19T05:08:53.867Z,8.50
2019-04-19T05:11:26.924Z,8.70
2019-04-19T05:14:00.755Z,9.00
2019-04-19T05:18:58.235Z,9.40
2019-04-19T05:21:35.016Z,9.80
2019-04-19T05:24:05.084Z,10.10
2019-04-19T05:26:38.700Z,10.00
2019-04-19T05:28:59.756Z,10.40
2019-04-19T05:31:28.898Z,10.80
2019-04-19T05:34:12.420Z,11.40
2019-04-19T05:36:38.631Z,11.90
2019-04-19T05:39:22.235Z,12.50
2019-04-19T05:41:54.034Z,13.00
2019-04-19T05:44:42.303Z,13.40
2019-04-19T05:47:10.035Z,13.70
2019-04-19T05:49:37.852Z,14.00
2019-04-19T05:52:16.507Z,14.50
2019-04-19T05:54:23.853Z,15.00
2019-04-19T05:56:59.209Z,15.50
2019-04-19T05:59:38.018Z,16.20
2019-04-19T06:02:10.010Z,16.70
2019-04-19T06:04:58.332Z,17.00
2019-04-19T06:07:17.571Z,17.50
2019-04-19T06:09:28.601Z,17.50
2019-04-19T06:11:58.158Z,17.60
2019-04-19T06:14:50.828Z,17.80
2019-04-19T06:17:33.380Z,18.30
2019-04-19T06:20:08.442Z,18.80
2019-04-19T06:22:41.869Z,18.90
2019-04-19T06:25:10.604Z,19.60
2019-04-19T06:27:53.635Z,19.80
2019-04-19T06:30:14.741Z,20.10
2019-04-19T06:32:46.125Z,20.60
2019-04-19T06:35:13.027Z,21.00
2019-04-19T06:37:28.577Z,21.20
2019-04-19T06:40:06.749Z,21.10
2019-04-19T06:42:35.780Z,20.80
2019-04-19T06:45:17.500Z,20.80
2019-04-19T06:47:36.625Z,21.10
2019-04-19T06:50:01.021Z,21.40
2019-04-19T06:52:33.382Z,22.00
2019-04-19T06:55:11.194Z,21.90
2019-04-19T06:57:42.337Z,22.20
2019-04-19T07:00:16.695Z,22.50
2019-04-19T07:02:36.982Z,23.10
2019-04-19T07:05:18.681Z,23.90
2019-04-19T07:08:04.370Z,23.50
2019-04-19T07:10:38.332Z,23.50
2019-04-19T07:13:00.655Z,23.20
2019-04-19T07:15:47.813Z,23.30
2019-04-19T07:18:01.197Z,22.90
2019-04-19T07:20:28.960Z,22.90
2019-04-19T07:22:57.888Z,22.70
2019-04-19T07:25:42.753Z,22.10
2019-04-19T07:27:56.557Z,21.30
2019-04-19T07:30:18.289Z,21.10
2019-04-19T07:32:57.708Z,21.30
2019-04-19T07:35:44.829Z,21.50
2019-04-19T07:38:17.244Z,21.80
2019-04-19T07:40:45.596Z,22.20
2019-04-19T07:43:11.789Z,22.70
2019-04-19T07:46:02.925Z,23.00
2019-04-19T07:48:25.656Z,23.00
2019-04-19T07:51:02.188Z,21.70
2019-04-19T07:53:34.728Z,21.00
2019-04-19T07:56:12.354Z,20.50
2019-04-19T07:58:50.772Z,20.10
2019-04-19T08:06:36.316Z,19.80
2019-04-19T08:09:02.503Z,19.80
2019-04-19T08:14:00.982Z,19.60
2019-04-19T08:17:07.302Z,19.40
2019-04-19T08:28:52.270Z,20.80
2019-04-19T08:31:15.927Z,20.40
2019-04-19T08:33:44.857Z,20.30
2019-04-19T08:36:16.634Z,20.60
2019-04-19T08:39:04.447Z,20.50
2019-04-19T08:41:39.766Z,20.20
2019-04-19T08:44:16.401Z,20.20
2019-04-19T08:46:32.524Z,20.70
2019-04-19T08:49:28.391Z,20.90
2019-04-19T08:52:08.427Z,20.90
2019-04-19T08:54:59.149Z,21.20
2019-04-19T08:57:13.569Z,21.30
2019-04-19T09:00:02.210Z,21.70
2019-04-19T09:02:25.174Z,21.40
2019-04-19T09:05:03.019Z,21.00
2019-04-19T09:10:17.415Z,21.80
2019-04-19T09:12:30.631Z,21.90
2019-04-19T09:15:00.925Z,22.30
2019-04-19T09:17:38.621Z,22.70
2019-04-19T09:20:19.527Z,21.90
2019-04-19T09:22:34.312Z,21.40
2019-04-19T09:24:56.032Z,21.00
2019-04-19T09:27:41.974Z,20.90
2019-04-19T09:30:11.533Z,21.00
2019-04-19T09:32:26.224Z,21.00
2019-04-19T09:34:57.481Z,21.30
2019-04-19T09:37:38.402Z,21.80
2019-04-19T09:40:02.842Z,22.60
2019-04-19T09:42:36.720Z,22.80
2019-04-19T09:44:58.370Z,22.60
2019-04-19T09:47:25.466Z,22.20
2019-04-19T09:50:09.157Z,22.50
2019-04-19T09:52:47.645Z,22.80
2019-04-19T09:55:25.783Z,22.70
2019-04-19T09:57:52.918Z,23.00
2019-04-19T10:00:07.472Z,22.60
2019-04-19T10:02:37.817Z,22.90
2019-04-19T10:05:01.009Z,23.20
2019-04-19T10:07:31.128Z,23.00
2019-04-19T10:10:04.822Z,23.00
2019-04-19T10:12:31.330Z,23.10
2019-04-19T10:15:04.607Z,23.50
2019-04-19T10:17:34.252Z,22.90
2019-04-19T10:20:04.609Z,23.10
2019-04-19T10:22:34.867Z,23.20
2019-04-19T10:25:05.050Z,22.90
2019-04-19T10:27:35.583Z,22.70
2019-04-19T10:30:08.251Z,23.00
2019-04-19T10:32:38.553Z,23.30
2019-04-19T10:35:09.339Z,24.00
2019-04-19T10:37:39.806Z,25.00
2019-04-19T10:40:11.597Z,25.40
2019-04-19T10:42:41.167Z,25.30
2019-04-19T10:45:12.370Z,25.50
2019-04-19T10:47:42.325Z,25.70
2019-04-19T10:50:24.406Z,25.80
2019-04-19T10:52:43.581Z,25.00
2019-04-19T10:55:14.096Z,24.90
2019-04-19T10:57:43.457Z,24.40
2019-04-19T11:00:13.780Z,24.30
2019-04-19T11:02:44.308Z,24.20
2019-04-19T11:05:15.063Z,24.20
2019-04-19T11:07:45.509Z,25.00
2019-04-19T11:10:15.792Z,24.90
2019-04-19T11:12:46.881Z,24.70
2019-04-19T11:15:16.545Z,24.10
2019-04-19T11:17:45.572Z,24.20
2019-04-19T11:20:26.254Z,24.20
2019-04-19T11:22:46.103Z,24.70
2019-04-19T11:25:15.405Z,25.20
2019-04-19T11:27:44.902Z,25.20
2019-04-19T11:30:41.201Z,25.30
2019-04-19T11:33:19.032Z,24.60
2019-04-19T11:35:53.244Z,24.20
2019-04-19T11:38:22.960Z,24.60
2019-04-19T11:40:53.218Z,25.10
2019-04-19T11:43:23.195Z,25.20
2019-04-19T11:45:52.136Z,25.30
2019-04-19T11:48:22.729Z,25.00
2019-04-19T11:50:51.967Z,24.90
2019-04-19T11:53:27.959Z,24.60
2019-04-19T11:56:16.531Z,24.10
2019-04-19T11:58:47.100Z,24.20
2019-04-19T12:01:19.824Z,24.70
2019-04-19T12:03:50.136Z,24.70
2019-04-19T12:06:20.441Z,24.70
2019-04-19T12:08:51.245Z,24.70
2019-04-19T12:11:22.548Z,24.70
2019-04-19T12:13:52.292Z,24.50
2019-04-19T12:16:21.648Z,24.70
2019-04-19T12:18:51.809Z,24.60
2019-04-19T12:21:21.025Z,24.50
2019-04-19T12:23:50.767Z,23.80
2019-04-19T12:26:19.981Z,23.40
2019-04-19T12:28:49.794Z,23.40
2019-04-19T12:31:19.167Z,24.00
2019-04-19T12:33:49.144Z,24.00
2019-04-19T12:36:19.228Z,24.00
2019-04-19T12:38:50.252Z,24.40
2019-04-19T12:41:19.796Z,24.60
2019-04-19T12:43:49.949Z,24.90
2019-04-19T12:46:21.174Z,24.50
2019-04-19T12:48:50.405Z,24.10
2019-04-19T12:51:19.578Z,24.00
2019-04-19T12:53:49.699Z,24.20
2019-04-19T12:56:20.427Z,24.80
2019-04-19T12:58:50.017Z,25.10
2019-04-19T13:02:09.259Z,24.60
2019-04-19T13:04:58.213Z,24.00
2019-04-19T13:07:28.936Z,23.70
2019-04-19T13:09:59.310Z,24.30
2019-04-19T13:12:28.752Z,24.10
2019-04-19T13:14:57.999Z,24.30
2019-04-19T13:17:28.371Z,24.60
2019-04-19T13:20:08.617Z,24.90
2019-04-19T13:22:30.336Z,24.80
2019-04-19T13:24:59.424Z,25.00
2019-04-19T13:27:37.448Z,24.90
2019-04-19T13:30:12.115Z,24.90
2019-04-19T13:32:31.605Z,24.50
2019-04-19T13:35:01.226Z,24.00
2019-04-19T13:37:39.076Z,24.10
2019-04-19T13:40:26.307Z,24.60
2019-04-19T13:42:57.468Z,25.00
2019-04-19T13:45:31.336Z,25.30
2019-04-19T13:47:58.718Z,24.70
2019-04-19T13:50:33.093Z,24.20
2019-04-19T13:52:58.479Z,24.30
2019-04-19T13:55:28.608Z,24.50
2019-04-19T13:57:57.825Z,24.50
2019-04-19T14:00:42.752Z,24.60
2019-04-19T14:03:12.088Z,24.60
2019-04-19T14:05:41.655Z,24.40
2019-04-19T14:08:11.267Z,24.70
2019-04-19T14:10:41.308Z,24.60
2019-04-19T14:13:10.727Z,23.90
2019-04-19T14:15:40.777Z,23.70
2019-04-19T14:18:10.895Z,23.90
2019-04-19T14:20:45.659Z,23.90
2019-04-19T14:23:11.475Z,24.40
2019-04-19T14:25:41.194Z,24.80
2019-04-19T14:28:11.359Z,24.60
2019-04-19T14:30:41.569Z,25.00
2019-04-19T14:33:10.835Z,25.80
2019-04-19T14:35:40.133Z,25.60
2019-04-19T14:38:09.937Z,25.30
2019-04-19T14:40:39.781Z,25.10
2019-04-19T14:43:08.927Z,25.60
2019-04-19T14:45:38.551Z,26.50
2019-04-19T14:48:08.901Z,25.80
2019-04-19T14:50:46.239Z,25.80
2019-04-19T14:53:10.065Z,25.80
2019-04-19T14:55:41.179Z,24.80
2019-04-19T14:58:10.355Z,24.90
2019-04-19T15:00:41.556Z,25.70
2019-04-19T15:03:21.075Z,26.00
2019-04-19T15:05:52.045Z,25.40
2019-04-19T15:08:22.505Z,24.80
2019-04-19T15:10:51.828Z,24.80
2019-04-19T15:13:20.966Z,25.10
2019-04-19T15:15:50.511Z,25.10
2019-04-19T15:18:19.495Z,25.10
2019-04-19T15:20:56.969Z,24.50
2019-04-19T15:23:20.567Z,24.10
2019-04-19T15:25:50.709Z,23.80
2019-04-19T15:28:20.273Z,23.60
2019-04-19T15:30:50.006Z,24.10
2019-04-19T15:33:19.042Z,24.80
2019-04-19T15:35:49.733Z,25.20
2019-04-19T15:38:19.666Z,25.20
2019-04-19T15:40:50.111Z,24.60
2019-04-19T15:43:19.279Z,24.20
2019-04-19T15:45:49.357Z,24.10
2019-04-19T15:48:30.542Z,23.70
2019-04-19T15:50:50.173Z,23.80
2019-04-19T15:53:20.217Z,24.40
2019-04-19T15:55:50.335Z,25.00
2019-04-19T15:58:20.336Z,25.30
2019-04-19T16:00:54.499Z,24.60
2019-04-19T16:03:41.401Z,24.30
2019-04-19T16:06:48.426Z,24.70
2019-04-19T16:09:42.707Z,25.00
2019-04-19T16:12:19.666Z,24.30
2019-04-19T16:14:48.655Z,24.20
2019-04-19T16:17:18.901Z,23.60
2019-04-19T16:19:53.414Z,23.30
2019-04-19T16:22:32.325Z,23.10
2019-04-19T16:25:03.217Z,23.00
2019-04-19T16:27:33.509Z,22.50
2019-04-19T16:30:03.698Z,22.00
2019-04-19T16:32:33.141Z,21.60
2019-04-19T16:35:03.605Z,21.30
2019-04-19T16:37:33.113Z,21.20
2019-04-19T16:40:02.800Z,21.20
2019-04-19T16:42:31.694Z,21.40
2019-04-19T16:45:01.912Z,21.40
2019-04-19T16:47:31.395Z,21.10
2019-04-19T16:50:00.645Z,20.70
2019-04-19T16:52:30.971Z,20.50
2019-04-19T16:55:01.350Z,20.40
2019-04-19T16:57:33.270Z,20.30
2019-04-19T17:00:05.440Z,20.30
2019-04-19T17:02:34.968Z,20.30
2019-04-19T17:05:04.655Z,20.30
2019-04-19T17:07:35.047Z,20.20
2019-04-19T17:10:05.731Z,20.20
2019-04-19T17:12:35.508Z,20.10
2019-04-19T17:15:21.713Z,20.10
2019-04-19T17:18:01.071Z,20.00
2019-04-19T17:20:47.868Z,19.80
2019-04-19T17:23:17.197Z,19.60
2019-04-19T17:25:46.756Z,19.60
2019-04-19T17:28:16.823Z,19.60
2019-04-19T17:30:48.296Z,19.50
2019-04-19T17:33:18.039Z,19.40
2019-04-19T17:35:48.294Z,19.30
2019-04-19T17:38:26.850Z,19.20
2019-04-19T17:40:48.069Z,19.20
2019-04-19T17:43:17.771Z,19.20
2019-04-19T17:45:46.722Z,19.10
2019-04-19T17:48:18.639Z,19.10
2019-04-19T17:50:53.637Z,19.10
2019-04-19T17:53:26.159Z,19.10
2019-04-19T17:55:55.554Z,19.00
2019-04-19T17:58:25.611Z,18.90
2019-04-19T18:00:55.349Z,18.70
2019-04-19T18:03:24.916Z,18.60
2019-04-19T18:05:54.308Z,18.60
2019-04-19T18:08:27.806Z,18.50
2019-04-19T18:10:56.093Z,18.40
2019-04-19T18:13:25.458Z,18.10
2019-04-19T18:15:56.384Z,17.80
2019-04-19T18:18:25.448Z,17.70
2019-04-19T18:20:58.541Z,17.80
2019-04-19T18:23:35.792Z,17.90
2019-04-19T18:25:57.059Z,17.90
2019-04-19T18:28:32.784Z,17.80
2019-04-19T18:31:00.127Z,17.60
2019-04-19T18:33:33.422Z,17.40
2019-04-19T18:36:06.637Z,17.10
2019-04-19T18:38:35.751Z,16.90
2019-04-19T18:41:06.900Z,16.70
2019-04-19T18:43:53.853Z,16.50
2019-04-19T18:46:08.765Z,16.50
2019-04-19T18:48:38.054Z,16.60
2019-04-19T18:51:08.523Z,16.60
2019-04-19T18:53:45.064Z,16.60
2019-04-19T18:56:16.228Z,16.50
2019-04-19T18:58:40.995Z,16.30
2019-04-19T19:01:22.858Z,16.00
2019-04-19T19:03:45.195Z,15.90
2019-04-19T19:06:15.501Z,15.80
2019-04-19T19:08:50.329Z,15.60
2019-04-19T19:11:20.377Z,15.60
2019-04-19T19:13:46.039Z,15.50
2019-04-19T19:16:21.120Z,15.40
2019-04-19T19:18:50.740Z,15.30
2019-04-19T19:21:18.098Z,15.20
2019-04-19T19:24:16.933Z,15.10
2019-04-19T19:26:26.826Z,15.00
2019-04-19T19:28:49.874Z,15.00
2019-04-19T19:31:19.063Z,15.00
2019-04-19T19:33:50.996Z,15.10
2019-04-19T19:36:25.219Z,14.90
2019-04-19T19:39:03.282Z,14.80
2019-04-19T19:42:21.827Z,14.60
2019-04-19T19:44:10.010Z,14.50
2019-04-19T19:47:01.835Z,14.50
2019-04-19T19:49:37.069Z,14.50
2019-04-19T19:51:49.387Z,14.60
2019-04-19T19:57:03.054Z,14.50
2019-04-19T19:59:22.741Z,14.30
2019-04-19T20:01:59.532Z,14.10
2019-04-19T20:04:13.655Z,14.00
2019-04-19T20:06:49.068Z,13.90
2019-04-19T20:09:18.591Z,13.60
2019-04-19T20:11:45.769Z,13.30
2019-04-19T20:14:21.292Z,13.30
2019-04-19T20:16:47.443Z,13.30
2019-04-19T20:19:19.162Z,13.30
2019-04-19T20:21:53.055Z,13.10
2019-04-19T20:24:34.067Z,13.10
2019-04-19T20:26:59.664Z,13.30
2019-04-19T20:29:26.262Z,13.30
2019-04-19T20:31:52.284Z,13.40
2019-04-19T20:34:28.367Z,13.50
2019-04-19T20:36:53.530Z,13.40
2019-04-19T20:39:24.839Z,13.40
2019-04-19T20:42:00.144Z,13.30
2019-04-19T20:44:39.177Z,13.10
2019-04-19T20:46:55.900Z,13.10
2019-04-19T20:49:28.666Z,13.00
2019-04-19T20:52:06.182Z,12.80
2019-04-19T20:54:54.275Z,12.70
2019-04-19T20:57:35.013Z,12.70
2019-04-19T20:59:55.647Z,12.80
2019-04-19T21:02:28.789Z,12.90
2019-04-19T21:04:57.665Z,13.00
2019-04-19T21:07:28.659Z,12.80
2019-04-19T21:09:58.180Z,12.70
2019-04-19T21:12:29.715Z,12.50
2019-04-19T21:15:08.356Z,12.30
2019-04-19T21:17:37.513Z,12.30
2019-04-19T21:20:00.345Z,12.40
2019-04-19T21:22:33.745Z,12.50
2019-04-19T21:25:09.249Z,12.60
2019-04-19T21:27:32.292Z,12.40
2019-04-19T21:30:08.150Z,12.50
2019-04-19T21:32:37.309Z,12.50
2019-04-19T21:35:09.517Z,12.40
2019-04-19T21:37:43.734Z,12.20
2019-04-19T21:40:10.191Z,12.10
2019-04-19T21:42:46.679Z,12.20
2019-04-19T21:45:11.603Z,12.20
2019-04-19T21:47:48.110Z,12.20
2019-04-19T21:50:13.149Z,12.20
2019-04-19T21:52:49.361Z,12.00
2019-04-19T21:55:25.101Z,12.00
2019-04-19T21:57:46.121Z,12.00
2019-04-19T22:00:28.983Z,12.10
2019-04-19T22:02:57.671Z,12.20
2019-04-19T22:05:30.850Z,12.30
2019-04-19T22:07:58.265Z,12.30
2019-04-19T22:10:33.417Z,12.30
2019-04-19T22:13:00.137Z,12.30
2019-04-19T22:15:31.075Z,12.20
2019-04-19T22:18:03.300Z,12.10
2019-04-19T22:20:32.422Z,11.90
2019-04-19T22:23:05.839Z,11.80
2019-04-19T22:25:45.391Z,11.70
2019-04-19T22:28:05.492Z,11.70
2019-04-19T22:30:48.740Z,11.70
2019-04-19T22:33:16.393Z,11.90
2019-04-19T22:35:54.621Z,11.90
2019-04-19T22:38:20.651Z,11.90
2019-04-19T22:40:47.999Z,11.90
2019-04-19T22:43:18.583Z,11.80
2019-04-19T22:45:48.958Z,11.70
2019-04-19T22:48:21.469Z,11.60
2019-04-19T22:50:50.706Z,11.60
2019-04-19T22:53:28.097Z,11.50
2019-04-19T22:56:06.094Z,11.60
2019-04-19T22:58:27.880Z,11.50
2019-04-19T23:00:54.466Z,11.10
2019-04-19T23:03:32.834Z,11.10
2019-04-19T23:05:59.557Z,11.20
2019-04-19T23:08:33.114Z,11.40
2019-04-19T23:11:04.219Z,11.50
2019-04-19T23:13:31.422Z,11.40
2019-04-19T23:16:05.237Z,11.20
2019-04-19T23:18:32.546Z,11.10
2019-04-19T23:21:10.865Z,11.20
2019-04-19T23:23:36.273Z,11.20
2019-04-19T23:26:19.632Z,11.10
2019-04-19T23:28:42.099Z,11.20
2019-04-19T23:31:11.112Z,11.40
2019-04-19T23:33:38.216Z,11.40
2019-04-19T23:36:12.862Z,11.30
2019-04-19T23:38:39.310Z,11.10
2019-04-19T23:41:09.045Z,11.20
2019-04-19T23:43:41.977Z,11.20
2019-04-19T23:46:18.689Z,11.20
2019-04-19T23:48:40.417Z,11.30
2019-04-19T23:51:10.441Z,11.10
2019-04-19T23:53:44.193Z,11.00
2019-04-19T23:56:22.609Z,11.00
2019-04-19T23:58:44.282Z,11.20
